Aviation Digital Data Service (ADDS)

Output produced by METARs form (0458 UTC 16 February 2019)
found at http://www.aviationweather.gov/metar/data/
 
METAR text: VTBO 160400Z 15006KT 8000 FEW020 31/22 Q1016
Conditions at: VTBO (TRAT/KHAO SAMING, TH) observed 0400 UTC 16 February 2019
Temperature: 31.0°C (88°F)
Dewpoint: 22.0°C (72°F) [RH = 59%]
Pressure (altimeter): 30.00 inches Hg (1016.0 mb)
Winds: from the SSE (150 degrees) at 7 MPH (6 knots; 3.1 m/s)
Visibility: 5 miles ( 8 km)
Ceiling: at least 12,000 feet AGL
Clouds: few clouds at 2000 feet AGL
Weather: no significant weather observed at this time

METAR text: VTBO 160300Z 13007KT 7000 FEW020 29/22 Q1016
Conditions at: VTBO (TRAT/KHAO SAMING, TH) observed 0300 UTC 16 February 2019
Temperature: 29.0°C (84°F)
Dewpoint: 22.0°C (72°F) [RH = 66%]
Pressure (altimeter): 30.00 inches Hg (1016.0 mb)
Winds: from the SE (130 degrees) at 8 MPH (7 knots; 3.6 m/s)
Visibility: 4 miles ( 7 km)
Ceiling: at least 12,000 feet AGL
Clouds: few clouds at 2000 feet AGL
Weather: no significant weather observed at this time

METAR text: VTBO 160200Z 13004KT 7000 FEW020 29/23 Q1016
Conditions at: VTBO (TRAT/KHAO SAMING, TH) observed 0200 UTC 16 February 2019
Temperature: 29.0°C (84°F)
Dewpoint: 23.0°C (73°F) [RH = 70%]
Pressure (altimeter): 30.00 inches Hg (1016.0 mb)
Winds: from the SE (130 degrees) at 5 MPH (4 knots; 2.1 m/s)
Visibility: 4 miles ( 7 km)
Ceiling: at least 12,000 feet AGL
Clouds: few clouds at 2000 feet AGL
Weather: no significant weather observed at this time

METAR text: VTBO 160100Z 00000KT 6000 FEW020 26/24 Q1016
Conditions at: VTBO (TRAT/KHAO SAMING, TH) observed 0100 UTC 16 February 2019
Temperature: 26.0°C (79°F)
Dewpoint: 24.0°C (75°F) [RH = 89%]
Pressure (altimeter): 30.00 inches Hg (1016.0 mb)
Winds: calm
Visibility: 4 miles ( 6 km)
Ceiling: at least 12,000 feet AGL
Clouds: few clouds at 2000 feet AGL
Weather: no significant weather observed at this time

METAR text: VTBO 160000Z 17002KT 6000 FEW020 25/23 Q1015
Conditions at: VTBO (TRAT/KHAO SAMING, TH) observed 0000 UTC 16 February 2019
Temperature: 25.0°C (77°F)
Dewpoint: 23.0°C (73°F) [RH = 89%]
Pressure (altimeter): 29.97 inches Hg (1015.0 mb)
Winds: from the S (170 degrees) at 2 MPH (2 knots; 1.0 m/s)
Visibility: 4 miles ( 6 km)
Ceiling: at least 12,000 feet AGL
Clouds: few clouds at 2000 feet AGL
Weather: no significant weather observed at this time

METAR text: VTBO 151100Z 21007KT 8000 FEW020 28/22 Q1013
Conditions at: VTBO (TRAT/KHAO SAMING, TH) observed 1100 UTC 15 February 2019
Temperature: 28.0°C (82°F)
Dewpoint: 22.0°C (72°F) [RH = 70%]
Pressure (altimeter): 29.91 inches Hg (1013.0 mb)
Winds: from the SSW (210 degrees) at 8 MPH (7 knots; 3.6 m/s)
Visibility: 5 miles ( 8 km)
Ceiling: at least 12,000 feet AGL
Clouds: few clouds at 2000 feet AGL
Weather: no significant weather observed at this time

METAR text: VTBO 151000Z 21009KT 9999 FEW020 29/22 Q1012
Conditions at: VTBO (TRAT/KHAO SAMING, TH) observed 1000 UTC 15 February 2019
Temperature: 29.0°C (84°F)
Dewpoint: 22.0°C (72°F) [RH = 66%]
Pressure (altimeter): 29.88 inches Hg (1012.0 mb)
Winds: from the SSW (210 degrees) at 10 MPH (9 knots; 4.6 m/s)
Visibility: 6 or more miles (10+ km)
Ceiling: at least 12,000 feet AGL
Clouds: few clouds at 2000 feet AGL
Weather: no significant weather observed at this time

METAR text: VTBO 150900Z 21011KT 9999 FEW020 30/22 Q1011
Conditions at: VTBO (TRAT/KHAO SAMING, TH) observed 0900 UTC 15 February 2019
Temperature: 30.0°C (86°F)
Dewpoint: 22.0°C (72°F) [RH = 62%]
Pressure (altimeter): 29.85 inches Hg (1011.0 mb)
Winds: from the SSW (210 degrees) at 13 MPH (11 knots; 5.7 m/s)
Visibility: 6 or more miles (10+ km)
Ceiling: at least 12,000 feet AGL
Clouds: few clouds at 2000 feet AGL
Weather: no significant weather observed at this time

METAR text: VTBO 150800Z 22010KT 9999 FEW020 31/23 Q1012
Conditions at: VTBO (TRAT/KHAO SAMING, TH) observed 0800 UTC 15 February 2019
Temperature: 31.0°C (88°F)
Dewpoint: 23.0°C (73°F) [RH = 63%]
Pressure (altimeter): 29.88 inches Hg (1012.0 mb)
Winds: from the SW (220 degrees) at 12 MPH (10 knots; 5.1 m/s)
Visibility: 6 or more miles (10+ km)
Ceiling: at least 12,000 feet AGL
Clouds: few clouds at 2000 feet AGL
Weather: no significant weather observed at this time

METAR text: VTBO 150700Z 22008KT 8000 FEW020 32/23 Q1013
Conditions at: VTBO (TRAT/KHAO SAMING, TH) observed 0700 UTC 15 February 2019
Temperature: 32.0°C (90°F)
Dewpoint: 23.0°C (73°F) [RH = 59%]
Pressure (altimeter): 29.91 inches Hg (1013.0 mb)
Winds: from the SW (220 degrees) at 9 MPH (8 knots; 4.1 m/s)
Visibility: 5 miles ( 8 km)
Ceiling: at least 12,000 feet AGL
Clouds: few clouds at 2000 feet AGL
Weather: no significant weather observed at this time

METAR text: VTBO 150600Z 23006KT 8000 FEW020 30/24 Q1014
Conditions at: VTBO (TRAT/KHAO SAMING, TH) observed 0600 UTC 15 February 2019
Temperature: 30.0°C (86°F)
Dewpoint: 24.0°C (75°F) [RH = 70%]
Pressure (altimeter): 29.94 inches Hg (1014.0 mb)
Winds: from the SW (230 degrees) at 7 MPH (6 knots; 3.1 m/s)
Visibility: 5 miles ( 8 km)
Ceiling: at least 12,000 feet AGL
Clouds: few clouds at 2000 feet AGL
Weather: no significant weather observed at this time

METAR text: VTBO 150500Z 25006KT 8000 FEW020 30/23 Q1015
Conditions at: VTBO (TRAT/KHAO SAMING, TH) observed 0500 UTC 15 February 2019
Temperature: 30.0°C (86°F)
Dewpoint: 23.0°C (73°F) [RH = 66%]
Pressure (altimeter): 29.97 inches Hg (1015.0 mb)
Winds: from the WSW (250 degrees) at 7 MPH (6 knots; 3.1 m/s)
Visibility: 5 miles ( 8 km)
Ceiling: at least 12,000 feet AGL
Clouds: few clouds at 2000 feet AGL
Weather: no significant weather observed at this time

METAR text: VTBO 150400Z 16003KT 8000 FEW020 31/23 Q1016
Conditions at: VTBO (TRAT/KHAO SAMING, TH) observed 0400 UTC 15 February 2019
Temperature: 31.0°C (88°F)
Dewpoint: 23.0°C (73°F) [RH = 63%]
Pressure (altimeter): 30.00 inches Hg (1016.0 mb)
Winds: from the SSE (160 degrees) at 3 MPH (3 knots; 1.5 m/s)
Visibility: 5 miles ( 8 km)
Ceiling: at least 12,000 feet AGL
Clouds: few clouds at 2000 feet AGL
Weather: no significant weather observed at this time

METAR text: VTBO 150300Z 20002KT 7000 FEW020 30/24 Q1016
Conditions at: VTBO (TRAT/KHAO SAMING, TH) observed 0300 UTC 15 February 2019
Temperature: 30.0°C (86°F)
Dewpoint: 24.0°C (75°F) [RH = 70%]
Pressure (altimeter): 30.00 inches Hg (1016.0 mb)
Winds: from the SSW (200 degrees) at 2 MPH (2 knots; 1.0 m/s)
Visibility: 4 miles ( 7 km)
Ceiling: at least 12,000 feet AGL
Clouds: few clouds at 2000 feet AGL
Weather: no significant weather observed at this time

METAR text: VTBO 150200Z 05003KT 6000 FEW020 28/25 Q1016
Conditions at: VTBO (TRAT/KHAO SAMING, TH) observed 0200 UTC 15 February 2019
Temperature: 28.0°C (82°F)
Dewpoint: 25.0°C (77°F) [RH = 84%]
Pressure (altimeter): 30.00 inches Hg (1016.0 mb)
Winds: from the NE (50 degrees) at 3 MPH (3 knots; 1.5 m/s)
Visibility: 4 miles ( 6 km)
Ceiling: at least 12,000 feet AGL
Clouds: few clouds at 2000 feet AGL
Weather: no significant weather observed at this time

METAR text: VTBO 150100Z 05002KT 5000 BR FEW020 25/24 Q1015
Conditions at: VTBO (TRAT/KHAO SAMING, TH) observed 0100 UTC 15 February 2019
Temperature: 25.0°C (77°F)
Dewpoint: 24.0°C (75°F) [RH = 94%]
Pressure (altimeter): 29.97 inches Hg (1015.0 mb)
Winds: from the NE (50 degrees) at 2 MPH (2 knots; 1.0 m/s)
Visibility: 3 miles ( 5 km)
Ceiling: at least 12,000 feet AGL
Clouds: few clouds at 2000 feet AGL
Weather: BR  (mist)

METAR text: VTBO 150000Z 00000KT 5000 BR FEW020 24/23 Q1015
Conditions at: VTBO (TRAT/KHAO SAMING, TH) observed 0000 UTC 15 February 2019
Temperature: 24.0°C (75°F)
Dewpoint: 23.0°C (73°F) [RH = 94%]
Pressure (altimeter): 29.97 inches Hg (1015.0 mb)
Winds: calm
Visibility: 3 miles ( 5 km)
Ceiling: at least 12,000 feet AGL
Clouds: few clouds at 2000 feet AGL
Weather: BR  (mist)

Forecast for: VTBO (TRAT/KHAO SAMING, TH)
Text: TAF VTBO 152300Z 1600/1624 00000KT 5000 BR FEW020
Forecast period: 0000 to 0200 UTC 16 February 2019
Forecast type: FROM: standard forecast or significant change
Winds: calm
Visibility: 3 miles (5 km)
Ceiling: at least 12,000 feet AGL
Clouds: few clouds at 2000 feet AGL
Weather: BR  (mist)
Text: BECMG 1602/1604 22008KT 8000 NSW
Forecast period: 0200 to 1600 UTC 16 February 2019
Forecast type: BECOMING: Conditions expected to become as follows by 0400 UTC 16 February 2019
Winds: from the SW (220 degrees) at 9 MPH (8 knots; 4.1 m/s)
Visibility: 5 miles (8 km)
Ceiling: at least 12,000 feet AGL
Clouds: few clouds at 2000 feet AGL
Weather: NSW  (no significant weather)
Text: BECMG 1616/1618 00000KT 5000 BR
Forecast period: 1600 UTC 16 February 2019 to 0000 UTC 17 February 2019
Forecast type: BECOMING: Conditions expected to become as follows by 1800 UTC 16 February 2019
Winds: calm
Visibility: 3 miles (5 km)
Ceiling: at least 12,000 feet AGL
Clouds: few clouds at 2000 feet AGL
Weather: BR  (mist)